Time;durP1;ratioP1;P1;durP2;ratioP2;P2;SDS_P1;SDS_P2;PMS_P1;PMS_P2;Temp;Humidity;BMP_temperature;BMP_pressure;BME280_temperature;BME280_humidity;BME280_pressure;Samples;Min_cycle;Max_cycle;Signal;HPM_P1;HPM_P2
2022/05/23 00:00:59;;;;;;;;;9.75;7.75;;;;;;;;5017098;28;46111;-63
2022/05/23 00:03:26;;;;;;;;;9.00;8.00;;;;;;;;5016796;28;45364;-64
2022/05/23 00:05:52;;;;;;;;;8.00;8.00;;;;;;;;5017372;28;45594;-63
2022/05/23 00:08:17;;;;;;;;;7.50;7.50;;;;;;;;5017006;28;45405;-64
2022/05/23 00:10:42;;;;;;;;;5.50;5.50;;;;;;;;5027404;28;46319;-63
2022/05/23 00:13:07;;;;;;;;;8.00;7.00;;;;;;;;5029867;28;45406;-63
2022/05/23 00:15:33;;;;;;;;;5.25;4.75;;;;;;;;5025510;28;45410;-63
2022/05/23 00:17:58;;;;;;;;;5.00;4.50;;;;;;;;5026519;28;45349;-63
2022/05/23 00:20:24;;;;;;;;;8.75;7.00;;;;;;;;5017070;28;46157;-63
2022/05/23 00:22:50;;;;;;;;;5.50;5.00;;;;;;;;5024344;28;45409;-63
2022/05/23 00:25:15;;;;;;;;;6.00;6.00;;;;;;;;5025218;28;45733;-64
2022/05/23 00:27:42;;;;;;;;;8.50;7.50;;;;;;;;5015885;28;45343;-63
2022/05/23 00:30:09;;;;;;;;;6.00;6.00;;;;;;;;5018944;28;46591;-62
2022/05/23 00:35:18;;;;;;;;;5.25;5.25;;;;;;;;5016873;28;45478;-63
2022/05/23 00:37:44;;;;;;;;;7.75;7.75;;;;;;;;5016033;28;45520;-63
2022/05/23 00:40:28;;;;;;;;;7.50;6.75;;;;;;;;5016594;28;45314;-63
2022/05/23 00:43:16;;;;;;;;;6.00;6.00;;;;;;;;5016528;28;45589;-63
2022/05/23 00:45:46;;;;;;;;;6.75;6.50;;;;;;;;5019461;28;45365;-64
2022/05/23 00:48:12;;;;;;;;;9.75;7.25;;;;;;;;5041541;28;45876;-62
2022/05/23 00:50:39;;;;;;;;;6.25;5.25;;;;;;;;5025956;28;45671;-62
2022/05/23 00:53:06;;;;;;;;;8.00;6.50;;;;;;;;5025516;28;45389;-64
2022/05/23 00:55:35;;;;;;;;;8.75;6.00;;;;;;;;5022263;28;45319;-63
2022/05/23 00:58:05;;;;;;;;;6.00;6.00;;;;;;;;5020777;28;45526;-63
2022/05/23 01:00:30;;;;;;;;;8.00;8.00;;;;;;;;5021670;28;45511;-62
2022/05/23 01:03:00;;;;;;;;;5.50;5.00;;;;;;;;5020888;28;45711;-62
2022/05/23 01:05:26;;;;;;;;;5.50;5.00;;;;;;;;5046122;28;45422;-63
2022/05/23 01:07:51;;;;;;;;;7.00;4.25;;;;;;;;5023899;28;45393;-64
2022/05/23 01:10:17;;;;;;;;;6.50;6.50;;;;;;;;5015636;28;46111;-63
2022/05/23 01:12:42;;;;;;;;;4.50;4.00;;;;;;;;5015554;28;45955;-62
2022/05/23 01:15:21;;;;;;;;;5.00;4.00;;;;;;;;5016155;28;45486;-63
2022/05/23 01:17:46;;;;;;;;;5.50;5.50;;;;;;;;5016070;28;45462;-62
2022/05/23 01:20:12;;;;;;;;;3.25;3.25;;;;;;;;5015379;28;46365;-63
2022/05/23 01:22:40;;;;;;;;;5.00;5.00;;;;;;;;5015875;28;45456;-63
2022/05/23 01:25:08;;;;;;;;;6.50;5.00;;;;;;;;5016169;28;45381;-64
2022/05/23 01:27:34;;;;;;;;;4.00;4.00;;;;;;;;5013963;28;45506;-63
2022/05/23 01:29:59;;;;;;;;;4.50;4.50;;;;;;;;5026811;28;46893;-63
2022/05/23 01:32:24;;;;;;;;;6.50;5.00;;;;;;;;5025436;28;45211;-63
2022/05/23 01:34:50;;;;;;;;;4.00;4.00;;;;;;;;5023177;28;45575;-62
2022/05/23 01:37:15;;;;;;;;;6.25;6.25;;;;;;;;5017558;28;45514;-63
2022/05/23 01:39:41;;;;;;;;;4.50;4.50;;;;;;;;5015073;28;45692;-63
2022/05/23 01:42:06;;;;;;;;;5.25;3.50;;;;;;;;5032168;28;46337;-62
2022/05/23 01:44:32;;;;;;;;;5.00;4.00;;;;;;;;5034392;28;45397;-62
2022/05/23 01:46:57;;;;;;;;;5.75;5.75;;;;;;;;5030539;28;45409;-63
2022/05/23 01:49:23;;;;;;;;;3.00;3.00;;;;;;;;5024966;28;46004;-62
2022/05/23 01:51:48;;;;;;;;;4.00;4.00;;;;;;;;5015615;28;45424;-63
2022/05/23 01:54:13;;;;;;;;;5.75;5.75;;;;;;;;5034517;28;45449;-63
2022/05/23 01:56:39;;;;;;;;;6.75;6.25;;;;;;;;5025287;28;45498;-62
2022/05/23 02:01:48;;;;;;;;;6.75;6.75;;;;;;;;5021430;28;45469;-63
2022/05/23 02:04:13;;;;;;;;;8.25;8.25;;;;;;;;5025294;28;45689;-62
2022/05/23 02:06:38;;;;;;;;;7.00;6.75;;;;;;;;5015394;28;45247;-63
2022/05/23 02:09:04;;;;;;;;;8.00;7.50;;;;;;;;5023591;28;47306;-62
2022/05/23 02:11:29;;;;;;;;;6.75;6.50;;;;;;;;5026652;28;45544;-62
2022/05/23 02:13:54;;;;;;;;;9.25;9.25;;;;;;;;5023517;28;45393;-64
2022/05/23 02:16:21;;;;;;;;;8.00;8.00;;;;;;;;5032148;28;45424;-62
2022/05/23 02:18:46;;;;;;;;;9.50;8.50;;;;;;;;5024911;28;46569;-64
2022/05/23 02:21:11;;;;;;;;;8.00;8.00;;;;;;;;5017522;28;45238;-63
2022/05/23 02:23:36;;;;;;;;;9.75;9.00;;;;;;;;5019075;28;45421;-62
2022/05/23 02:26:02;;;;;;;;;7.50;5.25;;;;;;;;5027787;28;45488;-62
2022/05/23 02:28:27;;;;;;;;;8.50;8.50;;;;;;;;5030663;28;45661;-61
2022/05/23 02:30:53;;;;;;;;;10.25;10.25;;;;;;;;5029189;28;45366;-62
2022/05/23 02:33:18;;;;;;;;;9.25;8.50;;;;;;;;5029006;28;45539;-62
2022/05/23 02:35:43;;;;;;;;;11.75;9.50;;;;;;;;5033997;28;45500;-62
2022/05/23 02:38:08;;;;;;;;;10.50;9.50;;;;;;;;5032194;28;45529;-61
2022/05/23 02:40:34;;;;;;;;;10.00;8.00;;;;;;;;5031334;28;45484;-62
2022/05/23 02:42:59;;;;;;;;;11.25;11.00;;;;;;;;5031221;28;45356;-61
2022/05/23 02:45:25;;;;;;;;;11.50;11.00;;;;;;;;5044702;28;45459;-62
2022/05/23 02:47:51;;;;;;;;;11.25;8.75;;;;;;;;5032461;28;45813;-62
2022/05/23 02:50:16;;;;;;;;;8.75;8.75;;;;;;;;5032868;28;45411;-63
2022/05/23 02:52:42;;;;;;;;;8.50;8.50;;;;;;;;5048054;28;45436;-62
2022/05/23 02:55:08;;;;;;;;;6.75;6.75;;;;;;;;5029468;28;45362;-63
2022/05/23 02:57:34;;;;;;;;;11.25;10.25;;;;;;;;5029755;28;46435;-61
2022/05/23 03:00:00;;;;;;;;;9.00;9.00;;;;;;;;5043919;28;45829;-62
2022/05/23 03:05:09;;;;;;;;;9.00;8.00;;;;;;;;5031916;28;45421;-61
2022/05/23 03:07:34;;;;;;;;;12.75;10.00;;;;;;;;5033274;28;46445;-63
2022/05/23 03:10:00;;;;;;;;;8.25;8.25;;;;;;;;5032002;28;45429;-63
2022/05/23 03:12:27;;;;;;;;;8.00;8.00;;;;;;;;5032402;28;45462;-63
2022/05/23 03:14:52;;;;;;;;;8.75;8.75;;;;;;;;5031343;28;45519;-62
2022/05/23 03:17:17;;;;;;;;;7.25;6.00;;;;;;;;5033547;28;45647;-63
2022/05/23 03:19:42;;;;;;;;;7.25;7.25;;;;;;;;5035520;28;45432;-63
2022/05/23 03:27:39;;;;;;;;;9.75;9.75;;;;;;;;5032551;28;45705;-63
2022/05/23 03:30:05;;;;;;;;;9.50;9.00;;;;;;;;5031713;28;45409;-62
2022/05/23 03:32:30;;;;;;;;;11.25;11.25;;;;;;;;5032363;28;45507;-62
2022/05/23 03:34:56;;;;;;;;;9.25;9.25;;;;;;;;5035050;28;46147;-62
2022/05/23 03:37:21;;;;;;;;;12.50;11.50;;;;;;;;5032864;28;46188;-62
2022/05/23 03:39:47;;;;;;;;;10.00;10.00;;;;;;;;5032370;28;45501;-63
2022/05/23 03:42:13;;;;;;;;;11.50;11.50;;;;;;;;5031412;28;45524;-63
2022/05/23 03:44:38;;;;;;;;;11.75;10.25;;;;;;;;5032777;28;45524;-63
2022/05/23 03:47:03;;;;;;;;;8.75;8.75;;;;;;;;5029954;28;47377;-62
2022/05/23 03:49:29;;;;;;;;;11.25;11.25;;;;;;;;5033334;28;45354;-63
2022/05/23 03:51:55;;;;;;;;;10.25;10.25;;;;;;;;5033093;28;45381;-62
2022/05/23 03:54:20;;;;;;;;;11.25;11.25;;;;;;;;5030775;28;45371;-62
2022/05/23 03:56:45;;;;;;;;;9.25;9.25;;;;;;;;5032784;28;46006;-62
2022/05/23 03:59:10;;;;;;;;;12.00;11.00;;;;;;;;5033643;28;45512;-62
2022/05/23 04:01:37;;;;;;;;;10.75;9.75;;;;;;;;5035146;28;45376;-61
2022/05/23 04:04:02;;;;;;;;;11.25;11.25;;;;;;;;5033871;28;45416;-61
2022/05/23 04:06:28;;;;;;;;;10.50;8.75;;;;;;;;5032481;28;46564;-62
2022/05/23 04:08:53;;;;;;;;;12.00;12.00;;;;;;;;5032308;28;45445;-62
2022/05/23 04:11:18;;;;;;;;;11.50;11.50;;;;;;;;5048128;28;45335;-62
2022/05/23 04:13:43;;;;;;;;;11.75;11.75;;;;;;;;5031249;28;45449;-61
2022/05/23 04:16:09;;;;;;;;;9.50;9.50;;;;;;;;5028967;28;45952;-62
2022/05/23 04:18:36;;;;;;;;;12.25;11.00;;;;;;;;5032445;28;45618;-62
2022/05/23 04:21:02;;;;;;;;;12.50;12.50;;;;;;;;5049312;28;45432;-62
2022/05/23 04:23:27;;;;;;;;;11.00;11.00;;;;;;;;5033593;28;45543;-62
2022/05/23 04:25:53;;;;;;;;;14.25;13.00;;;;;;;;5034329;28;46328;-62
2022/05/23 04:28:19;;;;;;;;;14.75;13.00;;;;;;;;5016847;28;46533;-62
2022/05/23 04:30:45;;;;;;;;;17.50;17.50;;;;;;;;5033284;28;45464;-61
2022/05/23 04:35:55;;;;;;;;;27.75;25.25;;;;;;;;5033103;28;45559;-62
2022/05/23 04:38:20;;;;;;;;;29.50;27.00;;;;;;;;5033252;28;45473;-62
2022/05/23 04:40:45;;;;;;;;;28.50;26.75;;;;;;;;5035434;28;45432;-61
2022/05/23 04:43:11;;;;;;;;;24.25;23.75;;;;;;;;5031884;28;45473;-61
2022/05/23 04:45:36;;;;;;;;;29.50;25.00;;;;;;;;5031197;28;45654;-61
2022/05/23 04:50:45;;;;;;;;;22.00;21.00;;;;;;;;5017997;28;45496;-61
2022/05/23 04:53:10;;;;;;;;;21.75;21.00;;;;;;;;5047406;28;45432;-62
2022/05/23 04:55:37;;;;;;;;;27.25;22.75;;;;;;;;5047191;28;47727;-61
2022/05/23 04:58:02;;;;;;;;;19.50;19.50;;;;;;;;5052512;28;46106;-61
2022/05/23 05:00:29;;;;;;;;;21.25;19.50;;;;;;;;5023338;28;45800;-62
2022/05/23 05:02:59;;;;;;;;;16.75;16.75;;;;;;;;5031691;28;45461;-61
2022/05/23 05:05:24;;;;;;;;;19.50;17.75;;;;;;;;5031144;28;46966;-61
2022/05/23 05:07:49;;;;;;;;;19.00;17.25;;;;;;;;5033605;28;45377;-61
2022/05/23 05:10:14;;;;;;;;;12.25;10.75;;;;;;;;5031665;28;45481;-62
2022/05/23 05:12:39;;;;;;;;;17.00;16.50;;;;;;;;5044819;28;45505;-62
2022/05/23 05:15:05;;;;;;;;;13.75;13.75;;;;;;;;5019126;28;45791;-62
2022/05/23 05:17:30;;;;;;;;;16.75;14.50;;;;;;;;5048161;28;45420;-62
2022/05/23 05:19:55;;;;;;;;;14.50;13.50;;;;;;;;5034975;28;45258;-61
2022/05/23 05:22:21;;;;;;;;;11.00;10.75;;;;;;;;5032723;28;45451;-61
2022/05/23 05:24:46;;;;;;;;;11.00;11.00;;;;;;;;5031220;28;47486;-62
2022/05/23 05:27:12;;;;;;;;;11.25;11.25;;;;;;;;5032504;28;45322;-60
2022/05/23 05:29:37;;;;;;;;;11.75;11.75;;;;;;;;5032922;28;45413;-62
2022/05/23 05:32:13;;;;;;;;;11.25;9.75;;;;;;;;5032948;28;45619;-61
2022/05/23 05:34:48;;;;;;;;;11.00;11.00;;;;;;;;5032524;28;48844;-61
2022/05/23 05:37:15;;;;;;;;;12.75;12.75;;;;;;;;5028341;28;46226;-61
2022/05/23 05:39:41;;;;;;;;;10.00;9.50;;;;;;;;5032194;28;45620;-62
2022/05/23 05:42:13;;;;;;;;;10.75;10.00;;;;;;;;5015671;28;45577;-62
2022/05/23 05:44:58;;;;;;;;;11.75;10.75;;;;;;;;5032481;28;46315;-62
2022/05/23 05:47:23;;;;;;;;;10.50;10.50;;;;;;;;5029594;28;46052;-62
2022/05/23 05:49:52;;;;;;;;;9.75;9.75;;;;;;;;5031858;28;45443;-63
2022/05/23 05:52:18;;;;;;;;;9.50;9.50;;;;;;;;5031616;28;45425;-62
2022/05/23 05:54:44;;;;;;;;;12.00;12.00;;;;;;;;5032508;28;46309;-62
2022/05/23 05:57:11;;;;;;;;;12.00;12.00;;;;;;;;5035737;28;45469;-62
2022/05/23 05:59:37;;;;;;;;;15.00;14.00;;;;;;;;5038993;28;45484;-62
2022/05/23 06:02:03;;;;;;;;;15.00;15.00;;;;;;;;5040408;28;45281;-62
2022/05/23 06:04:28;;;;;;;;;10.50;10.50;;;;;;;;5037233;28;49015;-62
2022/05/23 06:12:34;;;;;;;;;13.75;12.50;;;;;;;;5035993;28;45347;-64
2022/05/23 06:15:00;;;;;;;;;13.00;13.00;;;;;;;;5034949;28;45637;-64
2022/05/23 06:17:25;;;;;;;;;15.00;13.25;;;;;;;;5035331;28;45411;-65
2022/05/23 06:19:50;;;;;;;;;13.25;12.00;;;;;;;;5019709;28;45373;-64
2022/05/23 06:22:16;;;;;;;;;17.00;15.25;;;;;;;;5020853;28;45560;-63
2022/05/23 06:24:41;;;;;;;;;13.75;13.00;;;;;;;;5020779;28;48572;-63
2022/05/23 06:27:08;;;;;;;;;11.00;11.00;;;;;;;;5036157;28;45385;-63
2022/05/23 06:29:34;;;;;;;;;10.00;10.00;;;;;;;;5036353;28;45655;-63
2022/05/23 06:31:59;;;;;;;;;6.75;6.75;;;;;;;;5032891;28;45362;-63
2022/05/23 06:34:25;;;;;;;;;9.25;9.25;;;;;;;;5026216;28;45475;-62
2022/05/23 06:36:50;;;;;;;;;9.50;9.50;;;;;;;;5017570;28;45474;-64
2022/05/23 06:39:15;;;;;;;;;7.50;7.50;;;;;;;;5025731;28;45610;-64
2022/05/23 06:41:42;;;;;;;;;7.00;7.00;;;;;;;;5005144;28;45520;-63
2022/05/23 06:44:07;;;;;;;;;8.25;7.25;;;;;;;;5019538;28;45409;-64
2022/05/23 06:46:32;;;;;;;;;8.50;8.50;;;;;;;;5032410;28;46161;-63
2022/05/23 06:48:59;;;;;;;;;8.00;8.00;;;;;;;;5036246;28;45679;-63
2022/05/23 06:51:24;;;;;;;;;8.00;8.00;;;;;;;;5028256;28;46174;-63
2022/05/23 06:53:49;;;;;;;;;8.25;8.25;;;;;;;;5016638;28;47419;-65
2022/05/23 06:56:14;;;;;;;;;8.00;7.50;;;;;;;;5037124;28;45416;-64
2022/05/23 06:58:39;;;;;;;;;7.50;7.50;;;;;;;;5022798;28;45480;-65
2022/05/23 07:01:05;;;;;;;;;10.00;8.75;;;;;;;;5020110;28;45445;-64
2022/05/23 07:03:30;;;;;;;;;7.75;7.00;;;;;;;;5024704;28;46400;-63
2022/05/23 07:14:08;;;;;;;;;8.75;8.75;;;;;;;;5032071;28;45940;-65
2022/05/23 07:16:34;;;;;;;;;8.25;8.25;;;;;;;;5030144;28;45411;-64
2022/05/23 07:18:59;;;;;;;;;7.00;7.00;;;;;;;;5028204;28;45797;-63
2022/05/23 07:21:24;;;;;;;;;6.50;6.50;;;;;;;;5028373;28;45603;-64
2022/05/23 07:23:50;;;;;;;;;8.25;8.25;;;;;;;;5019161;28;46491;-63
2022/05/23 07:26:16;;;;;;;;;9.00;9.00;;;;;;;;5018696;28;45504;-65
2022/05/23 07:28:43;;;;;;;;;9.75;9.50;;;;;;;;5033466;28;45603;-65
2022/05/23 07:31:09;;;;;;;;;9.25;9.25;;;;;;;;5033413;28;45498;-64
2022/05/23 07:33:34;;;;;;;;;9.75;9.75;;;;;;;;5033190;28;46515;-63
2022/05/23 07:36:00;;;;;;;;;10.50;10.50;;;;;;;;5032389;28;45400;-64
2022/05/23 07:38:26;;;;;;;;;6.25;6.25;;;;;;;;5033979;28;45556;-64
2022/05/23 07:40:52;;;;;;;;;13.00;12.00;;;;;;;;5035568;28;45483;-63
2022/05/23 07:43:17;;;;;;;;;9.75;9.25;;;;;;;;5028808;28;48022;-63
2022/05/23 07:45:43;;;;;;;;;8.50;8.50;;;;;;;;5025859;28;45491;-63
2022/05/23 07:48:08;;;;;;;;;11.25;10.50;;;;;;;;5033310;28;45359;-63
2022/05/23 07:50:34;;;;;;;;;12.75;10.75;;;;;;;;5033513;28;45362;-63
2022/05/23 08:01:10;;;;;;;;;8.50;8.50;;;;;;;;5031560;28;45328;-64
2022/05/23 08:03:35;;;;;;;;;9.75;9.75;;;;;;;;5031532;28;45539;-63
2022/05/23 08:06:01;;;;;;;;;7.50;6.25;;;;;;;;5033294;28;45410;-64
2022/05/23 08:08:26;;;;;;;;;5.25;3.25;;;;;;;;5033391;28;45418;-64
2022/05/23 08:10:51;;;;;;;;;7.50;7.50;;;;;;;;5036002;28;45384;-64
2022/05/23 08:13:17;;;;;;;;;10.25;10.25;;;;;;;;5034160;28;45547;-63
2022/05/23 08:15:42;;;;;;;;;8.00;8.00;;;;;;;;5034067;28;45401;-64
2022/05/23 08:18:08;;;;;;;;;8.25;8.25;;;;;;;;5032032;28;45444;-64
2022/05/23 08:20:34;;;;;;;;;9.50;9.50;;;;;;;;5033824;28;45548;-63
2022/05/23 08:22:59;;;;;;;;;9.25;6.75;;;;;;;;5031317;28;45417;-63
2022/05/23 08:25:25;;;;;;;;;10.50;10.25;;;;;;;;5031916;28;45444;-63
2022/05/23 08:27:50;;;;;;;;;8.00;7.00;;;;;;;;5033565;28;45507;-63
2022/05/23 08:30:15;;;;;;;;;10.00;9.00;;;;;;;;5033439;28;45525;-62
2022/05/23 08:32:41;;;;;;;;;9.75;8.75;;;;;;;;5033051;28;46472;-63
2022/05/23 08:35:08;;;;;;;;;12.50;9.25;;;;;;;;5034580;28;45336;-63
2022/05/23 08:37:33;;;;;;;;;9.25;9.25;;;;;;;;5034296;28;45548;-63
2022/05/23 08:39:58;;;;;;;;;11.25;10.00;;;;;;;;5031847;28;45412;-63
2022/05/23 08:42:30;;;;;;;;;10.25;8.75;;;;;;;;5032055;28;46069;-64
2022/05/23 08:45:04;;;;;;;;;10.50;10.50;;;;;;;;5033066;28;45432;-65
2022/05/23 08:47:34;;;;;;;;;9.75;9.25;;;;;;;;5033058;28;45422;-63
2022/05/23 08:50:16;;;;;;;;;10.50;10.50;;;;;;;;5030897;28;45355;-63
2022/05/23 08:52:59;;;;;;;;;9.50;8.50;;;;;;;;5033299;28;47520;-65
2022/05/23 08:55:25;;;;;;;;;12.25;12.25;;;;;;;;5031212;28;45546;-63
2022/05/23 08:57:50;;;;;;;;;9.75;9.75;;;;;;;;5028247;28;45327;-64
2022/05/23 09:00:19;;;;;;;;;13.75;13.00;;;;;;;;5021773;28;45300;-64
2022/05/23 09:02:47;;;;;;;;;18.00;16.75;;;;;;;;5032131;28;46119;-63
2022/05/23 09:05:18;;;;;;;;;15.00;15.00;;;;;;;;5046843;28;45659;-64
2022/05/23 09:07:44;;;;;;;;;16.25;13.50;;;;;;;;5019503;28;45431;-64
2022/05/23 09:10:14;;;;;;;;;16.50;15.25;;;;;;;;5019155;28;45451;-64
2022/05/23 09:12:40;;;;;;;;;12.50;12.50;;;;;;;;5019720;28;45433;-64
2022/05/23 09:15:05;;;;;;;;;15.00;13.50;;;;;;;;5020027;28;45423;-63
2022/05/23 09:17:34;;;;;;;;;15.75;14.00;;;;;;;;5015164;28;45414;-64
2022/05/23 09:20:05;;;;;;;;;20.00;20.00;;;;;;;;5015199;28;45406;-63
2022/05/23 09:22:43;;;;;;;;;9.00;9.00;;;;;;;;5019390;28;47891;-63
2022/05/23 09:25:09;;;;;;;;;19.00;17.25;;;;;;;;5025100;28;45370;-63
2022/05/23 09:27:38;;;;;;;;;18.75;15.00;;;;;;;;5028198;28;45552;-62
2022/05/23 09:30:06;;;;;;;;;15.50;15.50;;;;;;;;5027676;28;45402;-63
2022/05/23 09:32:49;;;;;;;;;17.25;16.50;;;;;;;;5016020;28;46037;-64
2022/05/23 09:35:16;;;;;;;;;20.50;18.50;;;;;;;;5033016;28;46185;-64
2022/05/23 09:37:44;;;;;;;;;16.25;16.25;;;;;;;;5029708;28;45417;-64
2022/05/23 09:40:20;;;;;;;;;21.50;21.50;;;;;;;;5027846;28;45415;-63
2022/05/23 09:48:16;;;;;;;;;19.50;19.50;;;;;;;;5032223;28;45445;-64
2022/05/23 09:50:51;;;;;;;;;20.50;18.00;;;;;;;;5031398;28;45182;-65
2022/05/23 09:53:22;;;;;;;;;19.50;17.00;;;;;;;;5032338;28;45294;-63
2022/05/23 09:55:47;;;;;;;;;19.00;18.00;;;;;;;;5032512;28;45376;-63
2022/05/23 09:58:21;;;;;;;;;24.00;23.00;;;;;;;;5030679;28;45528;-64
2022/05/23 10:01:01;;;;;;;;;28.00;24.00;;;;;;;;5032054;28;47799;-63
2022/05/23 10:03:27;;;;;;;;;19.50;18.25;;;;;;;;5031716;28;45752;-63
2022/05/23 10:06:04;;;;;;;;;20.75;20.75;;;;;;;;5031982;28;45481;-63
2022/05/23 10:08:31;;;;;;;;;19.75;19.75;;;;;;;;5031729;28;45376;-64
2022/05/23 10:10:58;;;;;;;;;23.50;21.75;;;;;;;;5033777;28;45247;-64
2022/05/23 10:13:35;;;;;;;;;21.25;20.75;;;;;;;;5031483;28;46193;-66
2022/05/23 10:16:21;;;;;;;;;20.25;18.75;;;;;;;;5028558;28;45448;-65
2022/05/23 10:19:03;;;;;;;;;18.25;18.25;;;;;;;;5008189;28;47271;-65
2022/05/23 10:21:37;;;;;;;;;21.00;21.00;;;;;;;;5031751;28;45471;-65
2022/05/23 10:24:05;;;;;;;;;19.25;18.75;;;;;;;;5031645;28;46577;-64
2022/05/23 10:26:40;;;;;;;;;18.00;17.50;;;;;;;;5029932;28;46108;-63
2022/05/23 10:29:10;;;;;;;;;25.50;22.75;;;;;;;;5030075;28;45888;-63
2022/05/23 10:31:52;;;;;;;;;18.00;18.00;;;;;;;;5028985;28;45408;-63
2022/05/23 10:34:30;;;;;;;;;27.50;24.00;;;;;;;;5028397;28;45809;-65
2022/05/23 10:36:57;;;;;;;;;24.00;23.75;;;;;;;;5026907;28;46289;-64
2022/05/23 10:42:16;;;;;;;;;14.75;14.75;;;;;;;;5032130;28;45326;-64
2022/05/23 10:45:00;;;;;;;;;22.50;22.50;;;;;;;;5032491;28;45746;-65
2022/05/23 10:47:32;;;;;;;;;21.75;21.00;;;;;;;;5034878;28;45640;-63
2022/05/23 10:49:57;;;;;;;;;24.00;21.00;;;;;;;;5036623;28;45357;-63
2022/05/23 10:52:41;;;;;;;;;20.75;20.75;;;;;;;;5029018;28;45817;-65
2022/05/23 10:55:19;;;;;;;;;20.75;19.00;;;;;;;;5029614;28;46243;-64
2022/05/23 10:57:47;;;;;;;;;21.75;21.00;;;;;;;;5034294;28;45378;-63
2022/05/23 11:00:15;;;;;;;;;20.75;19.50;;;;;;;;5031909;28;45572;-62
2022/05/23 11:02:46;;;;;;;;;21.50;21.50;;;;;;;;5031824;28;45164;-62
2022/05/23 11:05:21;;;;;;;;;22.50;20.75;;;;;;;;5035681;28;49363;-63
2022/05/23 11:07:56;;;;;;;;;20.25;20.25;;;;;;;;5036581;28;45418;-64
2022/05/23 11:10:27;;;;;;;;;16.75;15.75;;;;;;;;5029595;28;45503;-64
2022/05/23 11:12:58;;;;;;;;;26.00;24.50;;;;;;;;5031012;28;45674;-63
2022/05/23 11:15:23;;;;;;;;;23.75;22.00;;;;;;;;5029935;28;47020;-63
2022/05/23 11:17:49;;;;;;;;;21.50;21.25;;;;;;;;5035122;28;45455;-63
2022/05/23 11:20:29;;;;;;;;;24.00;24.00;;;;;;;;5035585;28;45870;-63
2022/05/23 11:23:17;;;;;;;;;20.50;20.50;;;;;;;;5036390;28;45557;-63
2022/05/23 11:25:45;;;;;;;;;12.75;11.75;;;;;;;;5030011;28;45334;-62
2022/05/23 11:34:28;;;;;;;;;26.00;21.50;;;;;;;;4954732;28;45452;-62
2022/05/23 11:37:09;;;;;;;;;18.75;18.75;;;;;;;;4954435;28;46506;-63
2022/05/23 11:39:53;;;;;;;;;20.25;20.00;;;;;;;;4954374;28;45513;-64
2022/05/23 11:42:24;;;;;;;;;22.25;21.25;;;;;;;;4954751;28;45364;-63
2022/05/23 11:44:49;;;;;;;;;29.50;29.00;;;;;;;;4953788;28;45490;-63
2022/05/23 11:47:21;;;;;;;;;25.25;24.25;;;;;;;;4951052;28;46189;-64
2022/05/23 11:49:48;;;;;;;;;23.75;21.50;;;;;;;;4951666;28;45556;-64
2022/05/23 11:52:24;;;;;;;;;22.00;22.00;;;;;;;;4953965;28;45479;-65
2022/05/23 11:54:50;;;;;;;;;26.25;25.00;;;;;;;;4937936;28;45336;-63
2022/05/23 11:57:18;;;;;;;;;27.00;26.00;;;;;;;;4937666;28;47720;-64
2022/05/23 11:59:44;;;;;;;;;24.25;21.25;;;;;;;;4954418;28;45502;-64
2022/05/23 12:02:12;;;;;;;;;23.25;23.00;;;;;;;;4954539;28;45425;-63
2022/05/23 12:04:49;;;;;;;;;18.75;15.75;;;;;;;;4951062;28;45475;-63
2022/05/23 12:07:33;;;;;;;;;23.50;23.50;;;;;;;;4964431;28;45861;-65
2022/05/23 12:10:17;;;;;;;;;24.25;21.00;;;;;;;;5027988;28;45509;-64
2022/05/23 12:12:47;;;;;;;;;20.75;18.75;;;;;;;;5026719;28;45751;-66
2022/05/23 12:15:32;;;;;;;;;21.00;19.75;;;;;;;;5029040;28;45514;-65
2022/05/23 12:17:58;;;;;;;;;24.25;24.25;;;;;;;;5044593;28;47457;-63
2022/05/23 12:20:25;;;;;;;;;22.00;18.25;;;;;;;;5030079;28;45556;-64
2022/05/23 12:23:09;;;;;;;;;21.25;18.25;;;;;;;;5029735;28;45397;-64
2022/05/23 12:25:34;;;;;;;;;26.00;24.00;;;;;;;;5025245;28;45571;-63
2022/05/23 12:28:15;;;;;;;;;22.50;22.50;;;;;;;;5016838;28;45441;-64
2022/05/23 12:30:42;;;;;;;;;21.50;20.25;;;;;;;;5033723;28;45498;-64
2022/05/23 12:33:10;;;;;;;;;24.50;23.25;;;;;;;;5028595;28;45314;-62
2022/05/23 12:35:39;;;;;;;;;24.25;22.50;;;;;;;;5026275;28;45516;-63
2022/05/23 12:38:17;;;;;;;;;24.00;21.50;;;;;;;;5019210;28;47712;-64
2022/05/23 12:40:47;;;;;;;;;21.50;20.00;;;;;;;;5022072;28;45831;-64
2022/05/23 12:43:30;;;;;;;;;17.25;16.25;;;;;;;;5018689;28;45373;-65
2022/05/23 12:46:11;;;;;;;;;17.75;17.75;;;;;;;;5032137;28;45453;-65
2022/05/23 12:48:55;;;;;;;;;18.00;17.00;;;;;;;;5033660;28;47933;-64
2022/05/23 12:51:20;;;;;;;;;20.25;20.25;;;;;;;;5021170;28;45480;-65
2022/05/23 12:54:01;;;;;;;;;18.00;18.00;;;;;;;;5026828;28;45480;-63
2022/05/23 12:56:38;;;;;;;;;17.25;16.00;;;;;;;;5027314;28;45454;-65
2022/05/23 12:59:19;;;;;;;;;23.00;21.00;;;;;;;;5028251;28;45681;-65
2022/05/23 13:01:46;;;;;;;;;24.25;23.00;;;;;;;;5042905;28;45522;-65
2022/05/23 13:04:14;;;;;;;;;19.00;19.00;;;;;;;;5014466;28;45610;-64
2022/05/23 13:06:42;;;;;;;;;20.50;19.75;;;;;;;;5030952;28;45302;-64
2022/05/23 13:09:11;;;;;;;;;21.50;20.50;;;;;;;;5030027;28;45954;-64
2022/05/23 13:11:36;;;;;;;;;25.00;25.00;;;;;;;;5022450;28;45389;-66
2022/05/23 13:14:02;;;;;;;;;20.00;20.00;;;;;;;;5020131;28;45645;-66
2022/05/23 13:16:28;;;;;;;;;21.50;20.50;;;;;;;;5017149;28;45755;-64
2022/05/23 13:27:08;;;;;;;;;18.25;16.75;;;;;;;;5029223;28;45488;-64
2022/05/23 13:29:34;;;;;;;;;14.50;14.50;;;;;;;;5027579;28;46483;-63
2022/05/23 13:32:01;;;;;;;;;16.50;16.50;;;;;;;;5047932;28;46105;-65
2022/05/23 13:34:37;;;;;;;;;14.50;14.50;;;;;;;;5032262;28;45512;-65
2022/05/23 13:37:03;;;;;;;;;12.50;12.50;;;;;;;;5016535;28;45477;-64
2022/05/23 13:39:29;;;;;;;;;11.50;10.75;;;;;;;;5034256;28;46356;-64
2022/05/23 13:41:54;;;;;;;;;11.25;10.25;;;;;;;;5032447;28;45377;-65
2022/05/23 13:44:32;;;;;;;;;13.25;11.25;;;;;;;;5032667;28;45549;-65
2022/05/23 13:47:04;;;;;;;;;12.50;10.75;;;;;;;;5032582;28;45539;-65
2022/05/23 13:49:38;;;;;;;;;8.75;8.50;;;;;;;;5030745;28;45652;-64
2022/05/23 13:52:06;;;;;;;;;6.50;6.50;;;;;;;;5030306;28;45374;-64
2022/05/23 13:54:34;;;;;;;;;7.50;7.25;;;;;;;;5030134;28;45337;-66
2022/05/23 13:57:08;;;;;;;;;5.25;5.25;;;;;;;;5030595;28;45552;-65
2022/05/23 13:59:35;;;;;;;;;6.25;6.25;;;;;;;;5030561;28;46305;-64
2022/05/23 14:02:04;;;;;;;;;9.25;8.25;;;;;;;;5030314;28;45586;-65
2022/05/23 14:04:31;;;;;;;;;7.50;7.00;;;;;;;;5032430;28;45416;-65
2022/05/23 14:07:03;;;;;;;;;10.25;9.00;;;;;;;;5047079;28;45309;-66
2022/05/23 14:09:29;;;;;;;;;11.75;11.75;;;;;;;;5029148;28;47898;-66
2022/05/23 14:11:56;;;;;;;;;10.25;10.25;;;;;;;;5029377;28;45377;-65
2022/05/23 14:14:27;;;;;;;;;10.00;10.00;;;;;;;;5034415;28;45516;-65
2022/05/23 14:16:55;;;;;;;;;8.25;8.25;;;;;;;;5034627;28;45447;-65
2022/05/23 14:19:20;;;;;;;;;6.00;6.00;;;;;;;;5034131;28;48012;-63
2022/05/23 14:21:45;;;;;;;;;4.00;4.00;;;;;;;;5036109;28;45485;-64
2022/05/23 14:24:18;;;;;;;;;7.75;7.75;;;;;;;;5036826;28;45453;-64
2022/05/23 14:26:43;;;;;;;;;4.00;3.00;;;;;;;;5035413;28;45488;-65
2022/05/23 14:29:14;;;;;;;;;6.25;5.75;;;;;;;;5033624;28;46515;-65
2022/05/23 14:31:47;;;;;;;;;5.25;5.25;;;;;;;;5035347;28;45445;-66
2022/05/23 14:34:30;;;;;;;;;7.25;5.75;;;;;;;;5035408;28;45560;-65
2022/05/23 14:36:57;;;;;;;;;4.50;4.50;;;;;;;;5035225;28;45546;-66
2022/05/23 14:39:26;;;;;;;;;8.00;8.00;;;;;;;;5035932;28;46827;-66
2022/05/23 14:41:53;;;;;;;;;9.25;9.25;;;;;;;;5033753;28;45433;-65
2022/05/23 14:44:18;;;;;;;;;8.25;8.25;;;;;;;;5035192;28;45369;-66
2022/05/23 14:46:55;;;;;;;;;7.00;7.00;;;;;;;;5035095;28;45346;-68
2022/05/23 14:49:26;;;;;;;;;8.00;8.00;;;;;;;;5034839;28;45392;-65
2022/05/23 14:51:51;;;;;;;;;6.75;5.50;;;;;;;;5034848;28;45540;-65
2022/05/23 14:57:05;;;;;;;;;4.00;4.00;;;;;;;;5034285;28;45240;-65
2022/05/23 15:02:30;;;;;;;;;6.75;6.75;;;;;;;;5034651;28;45689;-65
2022/05/23 15:04:59;;;;;;;;;5.25;5.25;;;;;;;;5034611;28;45908;-67
2022/05/23 15:07:24;;;;;;;;;8.75;6.00;;;;;;;;5033463;28;45744;-65
2022/05/23 15:09:49;;;;;;;;;3.75;3.75;;;;;;;;5035314;28;45936;-66
2022/05/23 15:12:17;;;;;;;;;7.25;5.50;;;;;;;;5034622;28;45808;-65
2022/05/23 15:14:42;;;;;;;;;5.00;5.00;;;;;;;;5034479;28;45419;-66
2022/05/23 15:17:12;;;;;;;;;5.00;5.00;;;;;;;;5034514;28;45355;-66
2022/05/23 15:19:38;;;;;;;;;5.00;4.25;;;;;;;;5033596;28;48587;-66
2022/05/23 15:22:03;;;;;;;;;3.00;3.00;;;;;;;;5034576;28;45471;-66
2022/05/23 15:24:29;;;;;;;;;6.25;6.00;;;;;;;;5035253;28;45806;-67
2022/05/23 15:26:55;;;;;;;;;5.00;4.00;;;;;;;;5033660;28;45457;-65
2022/05/23 15:29:20;;;;;;;;;4.75;4.75;;;;;;;;5033231;28;46156;-66
2022/05/23 15:31:50;;;;;;;;;3.75;3.75;;;;;;;;5049075;28;49835;-67
2022/05/23 15:34:15;;;;;;;;;6.00;4.50;;;;;;;;5030555;28;45389;-66
2022/05/23 15:36:41;;;;;;;;;3.50;3.50;;;;;;;;5035004;28;45370;-66
2022/05/23 15:39:06;;;;;;;;;4.25;4.25;;;;;;;;5034451;28;45719;-65
2022/05/23 15:41:33;;;;;;;;;2.25;2.00;;;;;;;;5033585;28;45472;-67
2022/05/23 15:43:58;;;;;;;;;3.75;3.75;;;;;;;;5034466;28;45528;-67